createdAt,value
2016-05-16T00:00:23.225Z,0
2016-05-16T00:01:21.821Z,0
2016-05-16T00:02:39.152Z,0
2016-05-16T00:03:24.248Z,0
2016-05-16T00:04:23.345Z,0
2016-05-16T00:05:23.488Z,0
2016-05-16T00:06:22.413Z,0
2016-05-16T00:07:21.837Z,0
2016-05-16T00:08:24.543Z,0
2016-05-16T00:09:22.499Z,0
2016-05-16T00:10:22.798Z,0
2016-05-16T00:11:21.754Z,0
2016-05-16T00:12:21.850Z,0
2016-05-16T00:13:22.042Z,0
2016-05-16T00:14:21.888Z,0
2016-05-16T00:15:21.719Z,0
2016-05-16T00:16:21.721Z,0
2016-05-16T00:17:21.583Z,0
2016-05-16T00:18:21.694Z,0
2016-05-16T00:19:21.385Z,0
2016-05-16T00:20:21.654Z,0
2016-05-16T00:21:21.688Z,0
2016-05-16T00:22:21.518Z,0
2016-05-16T00:23:21.349Z,0
2016-05-16T00:24:21.649Z,0
2016-05-16T00:25:21.652Z,0
2016-05-16T00:26:21.654Z,0
2016-05-16T00:27:21.641Z,0
2016-05-16T00:28:21.316Z,0
2016-05-16T00:29:21.615Z,0
2016-05-16T00:30:21.462Z,0
2016-05-16T00:31:21.620Z,0
2016-05-16T00:32:21.437Z,0
2016-05-16T00:33:21.439Z,0
2016-05-16T00:34:21.582Z,0
2016-05-16T00:35:21.615Z,0
2016-05-16T00:36:21.572Z,0
2016-05-16T00:37:21.575Z,0
2016-05-16T00:38:21.248Z,0
2016-05-16T00:39:21.392Z,0
2016-05-16T00:40:21.536Z,0
2016-05-16T00:41:21.382Z,0
2016-05-16T00:42:21.541Z,0
2016-05-16T00:43:21.528Z,0
2016-05-16T00:44:21.343Z,0
2016-05-16T00:45:21.346Z,0
2016-05-16T00:46:21.489Z,0
2016-05-16T00:47:21.492Z,0
2016-05-16T00:48:21.322Z,0
2016-05-16T00:49:21.466Z,0
2016-05-16T00:50:21.469Z,0
2016-05-16T00:51:21.455Z,0
2016-05-16T00:52:21.443Z,0
2016-05-16T00:53:21.430Z,0
2016-05-16T00:54:21.292Z,0
2016-05-16T00:55:21.419Z,0
2016-05-16T00:56:21.422Z,0
2016-05-16T00:57:21.410Z,0
2016-05-16T00:58:21.257Z,0
2016-05-16T00:59:21.242Z,0
2016-05-16T01:00:21.386Z,0
2016-05-16T01:01:21.373Z,0
2016-05-16T01:02:21.376Z,0
2016-05-16T01:03:21.348Z,0
2016-05-16T01:04:21.365Z,0
2016-05-16T01:05:21.696Z,0
2016-05-16T01:06:21.339Z,0
2016-05-16T01:07:21.171Z,0
2016-05-16T01:08:21.314Z,0
2016-05-16T01:09:21.317Z,0
2016-05-16T01:10:20.992Z,0
2016-05-16T01:11:24.947Z,0
2016-05-16T01:12:23.059Z,0
2016-05-16T01:13:21.109Z,0
2016-05-16T01:14:21.362Z,0
2016-05-16T01:15:21.270Z,0
2016-05-16T01:16:21.897Z,0
2016-05-16T01:17:21.541Z,0
2016-05-16T01:18:49.591Z,0
2016-05-16T01:19:21.359Z,0
2016-05-16T01:21:22.739Z,0
2016-05-16T01:22:21.929Z,0
2016-05-16T01:23:21.042Z,0
2016-05-16T01:24:22.155Z,0
2016-05-16T01:25:21.860Z,0
2016-05-16T01:26:21.674Z,0
2016-05-16T01:28:21.976Z,0
2016-05-16T01:29:20.996Z,0
2016-05-16T01:30:20.982Z,0
2016-05-16T01:31:21.391Z,0
2016-05-16T01:32:21.832Z,0
2016-05-16T01:33:20.819Z,0
2016-05-16T01:34:21.103Z,0
2016-05-16T01:35:21.136Z,0
2016-05-16T01:36:20.951Z,0
2016-05-16T01:37:20.924Z,0
2016-05-16T01:38:20.910Z,0
2016-05-16T01:39:21.069Z,0
2016-05-16T01:40:21.073Z,0
2016-05-16T01:41:21.059Z,0
2016-05-16T01:42:21.061Z,0
2016-05-16T01:43:20.878Z,0
2016-05-16T01:44:21.036Z,0
2016-05-16T01:45:21.022Z,0
2016-05-16T01:46:21.011Z,0
2016-05-16T01:47:20.856Z,0
2016-05-16T01:48:20.999Z,0
2016-05-16T01:49:20.987Z,0
2016-05-16T01:50:21.489Z,0
2016-05-16T01:51:20.694Z,0
2016-05-16T01:52:21.051Z,0
2016-05-16T01:53:21.062Z,0
2016-05-16T01:54:20.933Z,0
2016-05-16T01:55:21.133Z,0
2016-05-16T01:56:21.000Z,0
2016-05-16T01:57:21.157Z,0
2016-05-16T01:58:21.160Z,0
2016-05-16T01:59:21.036Z,0
2016-05-16T02:00:21.194Z,0
2016-05-16T02:01:21.172Z,0
2016-05-16T02:02:21.025Z,0
2016-05-16T02:03:21.158Z,0
2016-05-16T02:04:21.182Z,0
2016-05-16T02:05:21.174Z,0
2016-05-16T02:06:21.179Z,0
2016-05-16T02:07:21.184Z,0
2016-05-16T02:08:20.985Z,0
2016-05-16T02:09:20.990Z,0
2016-05-16T02:10:21.136Z,0
2016-05-16T02:11:20.999Z,0
2016-05-16T02:12:21.127Z,0
2016-05-16T02:13:20.817Z,0
2016-05-16T02:14:21.118Z,0
2016-05-16T02:15:20.965Z,0
2016-05-16T02:16:20.796Z,0
2016-05-16T02:17:21.095Z,0
2016-05-16T02:18:21.083Z,0
2016-05-16T02:19:20.929Z,0
2016-05-16T02:20:21.431Z,0
2016-05-16T02:21:21.060Z,0
2016-05-16T02:22:20.906Z,0
2016-05-16T02:23:21.064Z,0
2016-05-16T02:24:20.896Z,0
2016-05-16T02:25:20.883Z,0
2016-05-16T02:26:20.886Z,0
2016-05-16T02:27:20.888Z,0
2016-05-16T02:28:21.016Z,0
2016-05-16T02:29:21.003Z,0
2016-05-16T02:30:22.569Z,0
2016-05-16T02:31:21.930Z,0
2016-05-16T02:32:22.152Z,0
2016-05-16T02:33:21.513Z,0
2016-05-16T02:34:20.845Z,0
2016-05-16T02:35:22.738Z,0
2016-05-16T02:36:21.944Z,0
2016-05-16T02:37:35.258Z,0
2016-05-16T02:38:22.199Z,0
2016-05-16T02:39:21.968Z,0
2016-05-16T02:40:37.049Z,0
2016-05-16T02:41:21.426Z,0
2016-05-16T02:42:21.428Z,0
2016-05-16T02:43:21.853Z,0
2016-05-16T02:44:21.293Z,0
2016-05-16T02:45:21.421Z,0
2016-05-16T02:46:22.501Z,0
2016-05-16T02:47:20.896Z,0
2016-05-16T02:48:20.992Z,0
2016-05-16T02:49:21.026Z,0
2016-05-16T02:50:21.403Z,0
2016-05-16T02:51:20.875Z,0
2016-05-16T02:52:20.908Z,0
2016-05-16T02:53:20.865Z,0
2016-05-16T02:54:20.851Z,0
2016-05-16T02:55:20.854Z,0
2016-05-16T02:56:20.825Z,0
2016-05-16T02:57:20.516Z,0
2016-05-16T02:58:20.519Z,0
2016-05-16T02:59:20.662Z,0
2016-05-16T03:00:20.820Z,0
2016-05-16T03:01:20.823Z,0
2016-05-16T03:02:20.655Z,0
2016-05-16T03:03:20.782Z,0
2016-05-16T03:04:20.785Z,5
2016-05-16T03:05:21.568Z,5
2016-05-16T03:06:20.774Z,5
2016-05-16T03:07:20.605Z,5
2016-05-16T03:08:20.764Z,5
2016-05-16T03:09:20.610Z,5
2016-05-16T03:10:20.769Z,5
2016-05-16T03:11:20.741Z,5
2016-05-16T03:12:20.572Z,5
2016-05-16T03:13:20.574Z,10
2016-05-16T03:14:20.718Z,10
2016-05-16T03:15:20.720Z,10
2016-05-16T03:16:20.738Z,10
2016-05-16T03:17:20.726Z,10
2016-05-16T03:18:20.698Z,10
2016-05-16T03:19:20.700Z,10
2016-05-16T03:20:20.656Z,10
2016-05-16T03:21:20.690Z,10
2016-05-16T03:22:20.676Z,10
2016-05-16T03:23:20.351Z,15
2016-05-16T03:24:20.651Z,15
2016-05-16T03:25:20.670Z,15
2016-05-16T03:26:20.484Z,15
2016-05-16T03:27:20.628Z,15
2016-05-16T03:28:20.630Z,15
2016-05-16T03:29:20.305Z,20
2016-05-16T03:30:20.464Z,20
2016-05-16T03:31:20.467Z,20
2016-05-16T03:32:20.453Z,20
2016-05-16T03:33:20.441Z,20
2016-05-16T03:34:20.600Z,20
2016-05-16T03:35:20.305Z,25
2016-05-16T03:36:20.589Z,25
2016-05-16T03:37:20.420Z,25
2016-05-16T03:38:20.579Z,30
2016-05-16T03:39:20.410Z,30
2016-05-16T03:40:20.257Z,30
2016-05-16T03:41:20.399Z,35
2016-05-16T03:42:20.402Z,35
2016-05-16T03:43:20.233Z,35
2016-05-16T03:44:20.533Z,35
2016-05-16T03:45:20.535Z,35
2016-05-16T03:46:20.523Z,35
2016-05-16T03:47:20.510Z,35
2016-05-16T03:48:20.356Z,35
2016-05-16T03:49:23.062Z,35
2016-05-16T03:50:20.674Z,35
2016-05-16T03:51:20.489Z,35
2016-05-16T03:52:21.539Z,30
2016-05-16T03:53:20.323Z,30
2016-05-16T03:54:21.059Z,30
2016-05-16T03:55:22.047Z,30
2016-05-16T03:56:21.737Z,30
2016-05-16T03:57:20.459Z,30
2016-05-16T03:58:22.476Z,30
2016-05-16T03:59:23.464Z,30
2016-05-16T04:00:21.278Z,35
2016-05-16T04:01:21.719Z,35
2016-05-16T04:02:22.394Z,35
2016-05-16T04:03:20.959Z,35
2016-05-16T04:04:21.258Z,40
2016-05-16T04:05:22.136Z,45
2016-05-16T04:06:21.858Z,45
2016-05-16T04:07:34.923Z,50
2016-05-16T04:08:20.691Z,50
2016-05-16T04:09:20.678Z,50
2016-05-16T04:10:20.274Z,55
2016-05-16T04:11:20.058Z,55
2016-05-16T04:12:20.468Z,60
2016-05-16T04:13:20.110Z,60
2016-05-16T04:14:20.348Z,65
2016-05-16T04:15:20.194Z,60
2016-05-16T04:16:20.354Z,60
2016-05-16T04:17:20.012Z,60
2016-05-16T04:18:20.327Z,65
2016-05-16T04:19:20.157Z,60
2016-05-16T04:20:20.348Z,60
2016-05-16T04:21:20.320Z,65
2016-05-16T04:22:20.323Z,70
2016-05-16T04:23:20.293Z,75
2016-05-16T04:24:20.390Z,80
2016-05-16T04:25:20.128Z,100
2016-05-16T04:26:19.958Z,100
2016-05-16T04:27:20.133Z,90
2016-05-16T04:28:20.104Z,90
2016-05-16T04:29:19.967Z,80
2016-05-16T04:30:20.125Z,90
2016-05-16T04:31:19.925Z,105
2016-05-16T04:32:20.239Z,140
2016-05-16T04:33:19.930Z,170
2016-05-16T04:34:20.230Z,180
2016-05-16T04:35:21.420Z,185
2016-05-16T04:36:20.219Z,175
2016-05-16T04:37:20.206Z,145
2016-05-16T04:38:20.194Z,125
2016-05-16T04:39:20.212Z,120
2016-05-16T04:40:20.043Z,100
2016-05-16T04:41:20.030Z,105
2016-05-16T04:42:20.033Z,100
2016-05-16T04:43:20.191Z,110
2016-05-16T04:44:20.241Z,115
2016-05-16T04:45:20.181Z,105
2016-05-16T04:46:20.012Z,100
2016-05-16T04:47:20.155Z,95
2016-05-16T04:48:20.158Z,85
2016-05-16T04:49:20.160Z,80
2016-05-16T04:50:19.835Z,95
2016-05-16T04:51:19.993Z,85
2016-05-16T04:52:19.982Z,95
2016-05-16T04:53:20.124Z,105
2016-05-16T04:54:20.127Z,95
2016-05-16T04:55:20.114Z,100
2016-05-16T04:56:20.101Z,105
2016-05-16T04:57:20.104Z,95
2016-05-16T04:58:20.091Z,105
2016-05-16T04:59:19.937Z,105
2016-05-16T05:00:19.940Z,100
2016-05-16T05:01:19.943Z,110
2016-05-16T05:02:19.945Z,115
2016-05-16T05:03:19.917Z,120
2016-05-16T05:04:20.075Z,120
2016-05-16T05:05:19.860Z,120
2016-05-16T05:06:19.894Z,130
2016-05-16T05:07:19.756Z,135
2016-05-16T05:08:21.086Z,140
2016-05-16T05:09:20.621Z,145
2016-05-16T05:10:20.045Z,130
2016-05-16T05:11:20.860Z,130
2016-05-16T05:12:20.379Z,120
2016-05-16T05:13:20.319Z,130
2016-05-16T05:14:34.400Z,140
2016-05-16T05:15:20.028Z,125
2016-05-16T05:16:20.608Z,135
2016-05-16T05:17:23.126Z,140
2016-05-16T05:18:20.582Z,170
2016-05-16T05:19:21.148Z,165
2016-05-16T05:20:20.869Z,150
2016-05-16T05:21:19.856Z,145
2016-05-16T05:22:20.171Z,150
2016-05-16T05:23:20.361Z,165
2016-05-16T05:24:20.255Z,170
2016-05-16T05:25:19.960Z,145
2016-05-16T05:26:20.885Z,150
2016-05-16T05:27:19.965Z,155
2016-05-16T05:28:20.140Z,140
2016-05-16T05:29:20.253Z,140
2016-05-16T05:30:20.036Z,155
2016-05-16T05:31:19.773Z,150
2016-05-16T05:32:19.933Z,170
2016-05-16T05:33:19.936Z,160
2016-05-16T05:34:19.939Z,165
2016-05-16T05:35:19.800Z,170
2016-05-16T05:36:19.911Z,165
2016-05-16T05:37:19.915Z,160
2016-05-16T05:38:19.902Z,170
2016-05-16T05:39:19.905Z,155
2016-05-16T05:40:19.891Z,165
2016-05-16T05:41:19.894Z,175
2016-05-16T05:42:19.896Z,180
2016-05-16T05:43:19.869Z,190
2016-05-16T05:44:19.558Z,195
2016-05-16T05:45:19.889Z,195
2016-05-16T05:46:19.720Z,180
2016-05-16T05:47:19.864Z,180
2016-05-16T05:48:19.709Z,180
2016-05-16T05:49:19.885Z,185
2016-05-16T05:50:20.137Z,195
2016-05-16T05:51:19.843Z,190
2016-05-16T05:52:19.845Z,210
2016-05-16T05:53:19.833Z,225
2016-05-16T05:54:19.835Z,245
2016-05-16T05:55:19.823Z,225
2016-05-16T05:56:19.669Z,230
2016-05-16T05:57:19.656Z,230
2016-05-16T05:58:19.815Z,225
2016-05-16T05:59:19.645Z,235
2016-05-16T06:00:19.804Z,230
2016-05-16T06:01:19.807Z,240
2016-05-16T06:02:19.795Z,270
2016-05-16T06:03:19.781Z,255
2016-05-16T06:04:19.644Z,220
2016-05-16T06:05:19.647Z,210
2016-05-16T06:06:19.617Z,225
2016-05-16T06:07:19.777Z,210
2016-05-16T06:08:19.764Z,210
2016-05-16T06:09:19.625Z,240
2016-05-16T06:10:19.769Z,250
2016-05-16T06:11:19.755Z,230
2016-05-16T06:12:19.744Z,200
2016-05-16T06:13:19.589Z,205
2016-05-16T06:14:19.592Z,230
2016-05-16T06:15:19.751Z,200
2016-05-16T06:16:19.597Z,175
2016-05-16T06:17:19.756Z,180
2016-05-16T06:18:19.759Z,180
2016-05-16T06:19:19.731Z,165
2016-05-16T06:20:20.093Z,165
2016-05-16T06:21:19.565Z,165
2016-05-16T06:22:19.582Z,170
2016-05-16T06:23:19.398Z,185
2016-05-16T06:24:19.557Z,190
2016-05-16T06:25:19.715Z,205
2016-05-16T06:26:20.499Z,205
2016-05-16T06:27:19.659Z,195
2016-05-16T06:28:21.520Z,200
2016-05-16T06:29:20.226Z,215
2016-05-16T06:30:20.401Z,200
2016-05-16T06:31:20.497Z,200
2016-05-16T06:32:20.704Z,210
2016-05-16T06:33:19.783Z,210
2016-05-16T06:34:20.928Z,200
2016-05-16T06:35:35.040Z,210
2016-05-16T06:36:22.761Z,210
2016-05-16T06:37:19.654Z,210
2016-05-16T06:38:19.781Z,245
2016-05-16T06:39:20.831Z,245
2016-05-16T06:40:19.850Z,220
2016-05-16T06:41:19.650Z,220
2016-05-16T06:42:22.652Z,210
2016-05-16T06:43:20.655Z,210
2016-05-16T06:44:20.422Z,180
2016-05-16T06:45:19.644Z,195
2016-05-16T06:46:19.616Z,200
2016-05-16T06:47:19.822Z,200
2016-05-16T06:48:19.294Z,205
2016-05-16T06:49:19.452Z,215
2016-05-16T06:50:19.486Z,220
2016-05-16T06:51:19.614Z,220
2016-05-16T06:52:19.601Z,190
2016-05-16T06:53:19.432Z,205
2016-05-16T06:54:19.606Z,255
2016-05-16T06:55:19.593Z,250
2016-05-16T06:56:19.580Z,255
2016-05-16T06:57:19.427Z,265
2016-05-16T06:58:19.273Z,210
2016-05-16T06:59:19.917Z,245
2016-05-16T07:00:19.637Z,270
2016-05-16T07:01:19.562Z,240
2016-05-16T07:02:20.221Z,245
2016-05-16T07:03:19.098Z,265
2016-05-16T07:04:19.399Z,260
2016-05-16T07:05:19.448Z,265
2016-05-16T07:06:19.388Z,290
2016-05-16T07:07:19.392Z,310
2016-05-16T07:08:19.566Z,380
2016-05-16T07:09:19.381Z,400
2016-05-16T07:10:19.539Z,425
2016-05-16T07:11:19.527Z,420
2016-05-16T07:12:19.530Z,495
2016-05-16T07:13:19.376Z,525
2016-05-16T07:14:19.519Z,555
2016-05-16T07:15:19.506Z,540
2016-05-16T07:16:19.525Z,555
2016-05-16T07:17:19.511Z,745
2016-05-16T07:18:19.514Z,825
2016-05-16T07:19:19.501Z,2535
2016-05-16T07:20:20.051Z,1225
2016-05-16T07:21:19.507Z,2330
2016-05-16T07:22:19.510Z,2205
2016-05-16T07:23:19.513Z,1150
2016-05-16T07:24:19.515Z,1745
2016-05-16T07:25:19.502Z,2075
2016-05-16T07:26:19.489Z,2345
2016-05-16T07:27:19.335Z,2390
2016-05-16T07:28:19.510Z,1570
2016-05-16T07:29:19.497Z,1055
2016-05-16T07:30:19.501Z,790
2016-05-16T07:31:19.518Z,765
2016-05-16T07:32:19.348Z,2010
2016-05-16T07:33:19.351Z,615
2016-05-16T07:34:19.354Z,2710
2016-05-16T07:35:19.904Z,2485
2016-05-16T07:36:19.516Z,1655
2016-05-16T07:37:19.362Z,1445
2016-05-16T07:38:19.397Z,2425
2016-05-16T07:39:19.540Z,910
2016-05-16T07:40:19.387Z,1715
2016-05-16T07:41:19.544Z,2370
2016-05-16T07:42:19.564Z,1920
2016-05-16T07:43:19.425Z,1280
2016-05-16T07:44:19.569Z,890
2016-05-16T07:45:20.977Z,1005
2016-05-16T07:46:21.714Z,740
2016-05-16T07:47:19.998Z,585
2016-05-16T07:48:20.813Z,635
2016-05-16T07:49:20.192Z,800
2016-05-16T07:50:20.335Z,670
2016-05-16T07:51:20.103Z,590
2016-05-16T07:52:21.793Z,595
2016-05-16T07:53:19.499Z,940
2016-05-16T07:54:19.643Z,930
2016-05-16T07:55:22.457Z,1400
2016-05-16T07:56:21.491Z,870
2016-05-16T07:57:20.665Z,740
2016-05-16T07:58:19.685Z,775
2016-05-16T07:59:19.735Z,1180
2016-05-16T08:00:19.690Z,2800
2016-05-16T08:01:21.959Z,755
2016-05-16T08:02:20.507Z,625
2016-05-16T08:03:19.714Z,1850
2016-05-16T08:04:19.716Z,1165
2016-05-16T08:05:19.890Z,725
2016-05-16T08:06:19.737Z,685
2016-05-16T08:07:19.678Z,785
2016-05-16T08:08:19.727Z,805
2016-05-16T08:09:19.651Z,1155
2016-05-16T08:10:19.748Z,1660
2016-05-16T08:11:19.610Z,660
2016-05-16T08:12:19.784Z,525
2016-05-16T08:13:19.786Z,420
2016-05-16T08:14:19.619Z,415
2016-05-16T08:15:19.793Z,450
2016-05-16T08:16:19.639Z,1805
2016-05-16T08:17:19.798Z,2290
2016-05-16T08:18:19.644Z,1480
2016-05-16T08:19:32.960Z,890
2016-05-16T08:20:19.666Z,735
2016-05-16T08:21:40.918Z,2325
2016-05-16T08:22:19.843Z,875
2016-05-16T08:23:26.643Z,600
2016-05-16T08:24:19.849Z,545
2016-05-16T08:25:19.866Z,510
2016-05-16T08:26:19.854Z,555
2016-05-16T08:27:19.856Z,750
2016-05-16T08:28:19.874Z,2525
2016-05-16T08:29:19.861Z,2495
2016-05-16T08:30:19.895Z,2400
2016-05-16T08:31:19.883Z,2485
2016-05-16T08:32:19.745Z,1825
2016-05-16T08:33:19.951Z,980
2016-05-16T08:34:19.906Z,760
2016-05-16T08:35:19.737Z,640
2016-05-16T08:36:19.771Z,550
2016-05-16T08:37:19.930Z,2255
2016-05-16T08:38:19.948Z,700
2016-05-16T08:39:19.951Z,935
2016-05-16T08:40:19.797Z,1185
2016-05-16T08:41:19.956Z,860
2016-05-16T08:42:19.990Z,735
2016-05-16T08:43:19.821Z,795
2016-05-16T08:44:19.809Z,1165
2016-05-16T08:45:19.669Z,695
2016-05-16T08:46:19.985Z,655
2016-05-16T08:47:20.020Z,640
2016-05-16T08:48:19.991Z,630
2016-05-16T08:49:19.713Z,635
2016-05-16T08:50:20.777Z,645
2016-05-16T08:51:20.999Z,655
2016-05-16T08:52:19.877Z,610
2016-05-16T08:53:20.051Z,615
2016-05-16T08:54:20.054Z,645
2016-05-16T08:55:19.744Z,550
2016-05-16T08:56:19.903Z,500
2016-05-16T08:57:20.077Z,485
2016-05-16T08:58:19.924Z,500
2016-05-16T08:59:19.910Z,515
2016-05-16T09:00:20.085Z,495
2016-05-16T09:01:20.072Z,460
2016-05-16T09:02:19.918Z,430
2016-05-16T09:03:20.094Z,445
2016-05-16T09:04:21.440Z,495
2016-05-16T09:05:20.099Z,510
2016-05-16T09:06:20.695Z,550
2016-05-16T09:07:20.479Z,660
2016-05-16T09:08:20.107Z,670
2016-05-16T09:09:20.891Z,640
2016-05-16T09:10:34.269Z,555
2016-05-16T09:11:22.053Z,520
2016-05-16T09:12:49.509Z,470
2016-05-16T09:13:20.167Z,455
2016-05-16T09:14:20.858Z,400
2016-05-16T09:15:20.422Z,395
2016-05-16T09:16:21.066Z,365
2016-05-16T09:17:20.912Z,365
2016-05-16T09:18:20.352Z,365
2016-05-16T09:19:20.059Z,375
2016-05-16T09:20:35.702Z,470
2016-05-16T09:21:20.861Z,550
2016-05-16T09:22:20.722Z,580
2016-05-16T09:23:20.475Z,610
2016-05-16T09:24:20.588Z,580
2016-05-16T09:25:20.278Z,505
2016-05-16T09:26:20.140Z,440
2016-05-16T09:27:20.002Z,425
2016-05-16T09:28:19.833Z,440
2016-05-16T09:29:19.991Z,430
2016-05-16T09:30:19.838Z,415
2016-05-16T09:31:20.512Z,415
2016-05-16T09:32:20.140Z,435
2016-05-16T09:33:20.143Z,465
2016-05-16T09:34:19.990Z,490
2016-05-16T09:35:20.165Z,495
2016-05-16T09:36:20.026Z,480
2016-05-16T09:37:20.154Z,510
2016-05-16T09:38:20.187Z,570
2016-05-16T09:39:20.003Z,575
2016-05-16T09:40:20.162Z,615
2016-05-16T09:41:20.195Z,660
2016-05-16T09:42:20.011Z,565
2016-05-16T09:43:20.154Z,415
2016-05-16T09:44:20.001Z,315
2016-05-16T09:45:20.003Z,260
2016-05-16T09:46:20.162Z,230
2016-05-16T09:47:20.164Z,230
2016-05-16T09:48:20.152Z,250
2016-05-16T09:49:20.170Z,290
2016-05-16T09:50:19.876Z,350
2016-05-16T09:51:20.223Z,400
2016-05-16T09:52:20.178Z,450
2016-05-16T09:53:20.181Z,480
2016-05-16T09:54:20.558Z,495
2016-05-16T09:55:20.374Z,495
2016-05-16T09:56:20.189Z,475
2016-05-16T09:57:20.021Z,470
2016-05-16T09:58:20.164Z,475
2016-05-16T09:59:20.197Z,530
2016-05-16T10:00:20.029Z,585
2016-05-16T10:01:20.187Z,600
2016-05-16T10:02:19.846Z,600
2016-05-16T10:03:20.176Z,595
2016-05-16T10:04:20.179Z,630
2016-05-16T10:05:20.182Z,665
2016-05-16T10:06:20.560Z,690
2016-05-16T10:07:20.016Z,700
2016-05-16T10:08:20.034Z,680
2016-05-16T10:09:20.193Z,655
2016-05-16T10:10:20.023Z,645
2016-05-16T10:11:20.042Z,635
2016-05-16T10:12:20.029Z,640
2016-05-16T10:13:20.032Z,650
2016-05-16T10:14:43.113Z,685
2016-05-16T10:15:20.928Z,695
2016-05-16T10:16:19.884Z,710
2016-05-16T10:17:20.042Z,685
2016-05-16T10:18:31.155Z,675
2016-05-16T10:19:20.188Z,680
2016-05-16T10:20:20.208Z,675
2016-05-16T10:21:20.085Z,645
2016-05-16T10:22:20.056Z,655
2016-05-16T10:23:20.653Z,680
2016-05-16T10:24:21.296Z,715
2016-05-16T10:25:21.080Z,750
2016-05-16T10:26:20.504Z,770
2016-05-16T10:27:21.007Z,785
2016-05-16T10:28:20.822Z,790
2016-05-16T10:29:21.278Z,785
2016-05-16T10:30:21.813Z,765
2016-05-16T10:31:20.252Z,740
2016-05-16T10:33:22.929Z,735
2016-05-16T10:34:20.604Z,735
2016-05-16T10:35:20.903Z,670
2016-05-16T10:36:21.032Z,560
2016-05-16T10:37:20.628Z,500
2016-05-16T10:38:20.723Z,435
2016-05-16T10:39:23.055Z,425
2016-05-16T10:40:20.262Z,455
2016-05-16T10:41:20.248Z,490
2016-05-16T10:42:20.751Z,540
2016-05-16T10:43:34.440Z,585
2016-05-16T10:44:20.256Z,615
2016-05-16T10:45:20.570Z,645
2016-05-16T10:46:20.277Z,690
2016-05-16T10:47:20.105Z,750
2016-05-16T10:48:20.267Z,780
2016-05-16T10:49:20.142Z,765
2016-05-16T10:50:20.285Z,730
2016-05-16T10:51:20.508Z,670
2016-05-16T10:52:20.274Z,580
2016-05-16T10:53:20.294Z,475
2016-05-16T10:54:20.296Z,400
2016-05-16T10:55:20.127Z,355
2016-05-16T10:56:20.145Z,345
2016-05-16T10:57:20.147Z,350
2016-05-16T10:58:20.347Z,375
2016-05-16T10:59:20.225Z,410
2016-05-16T11:00:20.446Z,455
2016-05-16T11:01:20.496Z,510
2016-05-16T11:02:20.529Z,545
2016-05-16T11:03:20.412Z,590
2016-05-16T11:04:20.589Z,640
2016-05-16T11:05:20.451Z,695
2016-05-16T11:06:21.148Z,715
2016-05-16T11:07:20.491Z,710
2016-05-16T11:08:20.657Z,690
2016-05-16T11:09:20.666Z,665
2016-05-16T11:10:20.674Z,660
2016-05-16T11:11:20.683Z,685
2016-05-16T11:12:20.692Z,670
2016-05-16T11:13:20.697Z,650
2016-05-16T11:14:20.685Z,655
2016-05-16T11:15:20.691Z,655
2016-05-16T11:16:20.382Z,655
2016-05-16T11:17:20.701Z,650
2016-05-16T11:18:20.720Z,660
2016-05-16T11:19:20.723Z,675
2016-05-16T11:20:20.571Z,665
2016-05-16T11:21:20.776Z,655
2016-05-16T11:22:20.734Z,665
2016-05-16T11:23:20.738Z,660
2016-05-16T11:24:20.599Z,645
2016-05-16T11:25:20.728Z,655
2016-05-16T11:26:20.574Z,670
2016-05-16T11:27:20.592Z,685
2016-05-16T11:28:20.580Z,720
2016-05-16T11:29:20.755Z,760
2016-05-16T11:30:20.444Z,770
2016-05-16T11:31:20.589Z,760
2016-05-16T11:32:20.763Z,740
2016-05-16T11:33:20.781Z,740
2016-05-16T11:34:20.753Z,745
2016-05-16T11:35:20.614Z,745
2016-05-16T11:36:20.820Z,755
2016-05-16T11:37:20.776Z,765
2016-05-16T11:38:20.763Z,755
2016-05-16T11:39:20.766Z,745
2016-05-16T11:40:20.644Z,720
2016-05-16T11:41:20.787Z,665
2016-05-16T11:42:23.792Z,635
2016-05-16T11:43:20.792Z,645
2016-05-16T11:44:22.188Z,670
2016-05-16T11:45:20.798Z,665
2016-05-16T11:46:20.971Z,650
2016-05-16T11:47:21.397Z,600
2016-05-16T11:48:22.605Z,575
2016-05-16T11:49:21.855Z,545
2016-05-16T11:50:20.812Z,565
2016-05-16T11:51:23.785Z,610
2016-05-16T11:52:21.442Z,680
2016-05-16T11:53:22.415Z,740
2016-05-16T11:54:22.512Z,780
2016-05-16T11:55:20.981Z,765
2016-05-16T11:56:21.249Z,715
2016-05-16T11:57:21.189Z,680
2016-05-16T11:58:22.835Z,675
2016-05-16T11:59:22.131Z,660
2016-05-16T12:00:21.526Z,635
2016-05-16T12:01:35.015Z,610
2016-05-16T12:02:21.000Z,595
2016-05-16T12:03:20.847Z,565
2016-05-16T12:04:20.755Z,540
2016-05-16T12:05:20.898Z,530
2016-05-16T12:06:21.229Z,540
2016-05-16T12:07:20.700Z,570
2016-05-16T12:08:20.860Z,580
2016-05-16T12:09:20.878Z,590
2016-05-16T12:10:20.568Z,595
2016-05-16T12:11:20.711Z,610
2016-05-16T12:12:20.902Z,630
2016-05-16T12:13:20.888Z,665
2016-05-16T12:14:20.907Z,685
2016-05-16T12:15:20.722Z,700
2016-05-16T12:16:20.897Z,710
2016-05-16T12:17:20.743Z,730
2016-05-16T12:18:20.902Z,745
2016-05-16T12:19:20.904Z,745
2016-05-16T12:20:20.907Z,750
2016-05-16T12:21:21.284Z,755
2016-05-16T12:22:20.912Z,765
2016-05-16T12:23:20.932Z,780
2016-05-16T12:24:20.918Z,800
2016-05-16T12:25:20.609Z,790
2016-05-16T12:26:20.923Z,780
2016-05-16T12:27:20.786Z,745
2016-05-16T12:28:20.945Z,685
2016-05-16T12:29:20.931Z,610
2016-05-16T12:30:20.794Z,525
2016-05-16T12:31:20.937Z,440
2016-05-16T12:32:20.800Z,360
2016-05-16T12:33:20.802Z,290
2016-05-16T12:34:20.805Z,240
2016-05-16T12:35:20.807Z,205
2016-05-16T12:36:21.435Z,175
2016-05-16T12:37:20.655Z,160
2016-05-16T12:38:20.972Z,150
2016-05-16T12:39:20.975Z,150
2016-05-16T12:40:20.805Z,155
2016-05-16T12:41:20.995Z,165
2016-05-16T12:42:20.810Z,175
2016-05-16T12:43:20.813Z,200
2016-05-16T12:44:20.971Z,230
2016-05-16T12:45:20.834Z,255
2016-05-16T12:46:20.993Z,290
2016-05-16T12:47:20.980Z,325
2016-05-16T12:48:20.982Z,375
2016-05-16T12:49:21.001Z,435
2016-05-16T12:50:21.004Z,475
2016-05-16T12:51:21.068Z,505
2016-05-16T12:52:20.838Z,525
2016-05-16T12:53:21.011Z,540
2016-05-16T12:54:20.999Z,540
2016-05-16T12:55:20.846Z,550
2016-05-16T12:56:20.848Z,550
2016-05-16T12:57:20.850Z,545
2016-05-16T12:58:21.009Z,545
2016-05-16T12:59:21.012Z,545
2016-05-16T13:00:23.046Z,570
2016-05-16T13:01:22.862Z,625
2016-05-16T13:02:21.551Z,630
2016-05-16T13:03:22.320Z,630
2016-05-16T13:04:20.853Z,640
2016-05-16T13:05:21.778Z,645
2016-05-16T13:06:21.156Z,665
2016-05-16T13:07:49.380Z,720
2016-05-16T13:08:21.427Z,730
2016-05-16T13:09:21.320Z,715
2016-05-16T13:10:23.167Z,730
2016-05-16T13:11:23.700Z,745
2016-05-16T13:12:21.375Z,770
2016-05-16T13:13:22.143Z,785
2016-05-16T13:14:20.880Z,795
2016-05-16T13:15:21.680Z,800
2016-05-16T13:16:21.293Z,790
2016-05-16T13:17:23.342Z,785
2016-05-16T13:18:21.704Z,780
2016-05-16T13:19:35.490Z,770
2016-05-16T13:20:35.227Z,765
2016-05-16T13:21:21.352Z,755
2016-05-16T13:22:21.387Z,740
2016-05-16T13:23:21.468Z,730
2016-05-16T13:24:21.189Z,720
2016-05-16T13:25:21.067Z,695
2016-05-16T13:26:20.898Z,685
2016-05-16T13:27:20.915Z,670
2016-05-16T13:28:21.075Z,665
2016-05-16T13:29:20.920Z,655
2016-05-16T13:30:21.065Z,645
2016-05-16T13:31:20.911Z,645
2016-05-16T13:32:21.117Z,645
2016-05-16T13:33:20.791Z,645
2016-05-16T13:34:21.091Z,635
2016-05-16T13:35:20.937Z,635
2016-05-16T13:36:21.002Z,630
2016-05-16T13:37:21.099Z,640
2016-05-16T13:38:20.945Z,640
2016-05-16T13:39:21.105Z,640
2016-05-16T13:40:21.122Z,640
2016-05-16T13:41:21.125Z,615
2016-05-16T13:42:20.956Z,595
2016-05-16T13:43:20.959Z,585
2016-05-16T13:44:20.977Z,560
2016-05-16T13:45:21.121Z,545
2016-05-16T13:46:21.124Z,530
2016-05-16T13:47:21.126Z,540
2016-05-16T13:48:21.143Z,550
2016-05-16T13:49:21.131Z,540
2016-05-16T13:50:21.010Z,530
2016-05-16T13:51:21.574Z,500
2016-05-16T13:52:20.998Z,460
2016-05-16T13:53:21.142Z,390
2016-05-16T13:54:20.848Z,325
2016-05-16T13:55:20.851Z,275
2016-05-16T13:56:21.009Z,235
2016-05-16T13:57:21.153Z,200
2016-05-16T13:58:20.999Z,165
2016-05-16T13:59:20.846Z,140
2016-05-16T14:00:21.176Z,130
2016-05-16T14:01:21.164Z,125
2016-05-16T14:02:21.197Z,130
2016-05-16T14:03:21.028Z,135